sensor_id;sensor_type;location;lat;lon;timestamp;temperature;humidity
37410;DHT22;23275;48.914;12.566;2023-08-24T00:02:05;18.80;99.90
37410;DHT22;23275;48.914;12.566;2023-08-24T00:04:32;18.90;99.90
37410;DHT22;23275;48.914;12.566;2023-08-24T00:06:57;18.80;99.90
37410;DHT22;23275;48.914;12.566;2023-08-24T00:09:23;18.70;99.90
37410;DHT22;23275;48.914;12.566;2023-08-24T00:11:48;18.70;99.90
37410;DHT22;23275;48.914;12.566;2023-08-24T00:14:14;18.60;99.90
37410;DHT22;23275;48.914;12.566;2023-08-24T00:16:39;18.50;99.90
37410;DHT22;23275;48.914;12.566;2023-08-24T00:19:06;18.50;99.90
37410;DHT22;23275;48.914;12.566;2023-08-24T00:21:32;18.40;99.90
37410;DHT22;23275;48.914;12.566;2023-08-24T00:23:57;18.40;99.90
37410;DHT22;23275;48.914;12.566;2023-08-24T00:26:25;18.40;99.90
37410;DHT22;23275;48.914;12.566;2023-08-24T00:28:50;18.40;99.90
37410;DHT22;23275;48.914;12.566;2023-08-24T00:31:16;18.30;99.90
37410;DHT22;23275;48.914;12.566;2023-08-24T00:33:42;18.30;99.90
37410;DHT22;23275;48.914;12.566;2023-08-24T00:36:07;18.30;99.90
37410;DHT22;23275;48.914;12.566;2023-08-24T00:38:33;18.30;99.90
37410;DHT22;23275;48.914;12.566;2023-08-24T00:40:59;18.30;99.90
37410;DHT22;23275;48.914;12.566;2023-08-24T00:43:27;18.30;99.90
37410;DHT22;23275;48.914;12.566;2023-08-24T00:45:58;18.40;99.90
37410;DHT22;23275;48.914;12.566;2023-08-24T00:48:25;18.40;99.90
37410;DHT22;23275;48.914;12.566;2023-08-24T00:50:54;18.40;99.90
37410;DHT22;23275;48.914;12.566;2023-08-24T00:53:20;18.30;99.90
37410;DHT22;23275;48.914;12.566;2023-08-24T00:55:46;18.30;99.90
37410;DHT22;23275;48.914;12.566;2023-08-24T00:58:13;18.30;99.90
37410;DHT22;23275;48.914;12.566;2023-08-24T01:00:39;18.30;99.90
37410;DHT22;23275;48.914;12.566;2023-08-24T01:03:05;18.20;99.90
37410;DHT22;23275;48.914;12.566;2023-08-24T01:05:31;18.10;99.90
37410;DHT22;23275;48.914;12.566;2023-08-24T01:07:56;18.10;99.90
37410;DHT22;23275;48.914;12.566;2023-08-24T01:10:22;18.00;99.90
37410;DHT22;23275;48.914;12.566;2023-08-24T01:13:10;17.90;99.90
37410;DHT22;23275;48.914;12.566;2023-08-24T01:15:45;17.80;99.90
37410;DHT22;23275;48.914;12.566;2023-08-24T01:18:14;17.80;99.90
37410;DHT22;23275;48.914;12.566;2023-08-24T01:20:42;17.70;99.90
37410;DHT22;23275;48.914;12.566;2023-08-24T01:26:20;17.60;99.90
37410;DHT22;23275;48.914;12.566;2023-08-24T01:28:46;17.60;99.90
37410;DHT22;23275;48.914;12.566;2023-08-24T01:31:16;17.60;99.90
37410;DHT22;23275;48.914;12.566;2023-08-24T01:33:45;17.50;99.90
37410;DHT22;23275;48.914;12.566;2023-08-24T01:36:12;17.50;99.90
37410;DHT22;23275;48.914;12.566;2023-08-24T01:38:39;17.40;99.90
37410;DHT22;23275;48.914;12.566;2023-08-24T01:41:28;17.40;99.90
37410;DHT22;23275;48.914;12.566;2023-08-24T01:43:57;17.40;99.90
37410;DHT22;23275;48.914;12.566;2023-08-24T01:46:24;17.40;99.90
37410;DHT22;23275;48.914;12.566;2023-08-24T01:48:52;17.40;99.90
37410;DHT22;23275;48.914;12.566;2023-08-24T01:51:18;17.40;99.90
37410;DHT22;23275;48.914;12.566;2023-08-24T01:53:45;17.40;99.90
37410;DHT22;23275;48.914;12.566;2023-08-24T01:56:16;17.40;99.90
37410;DHT22;23275;48.914;12.566;2023-08-24T01:58:41;17.40;99.90
37410;DHT22;23275;48.914;12.566;2023-08-24T02:01:08;17.40;99.90
37410;DHT22;23275;48.914;12.566;2023-08-24T02:03:34;17.40;99.90
37410;DHT22;23275;48.914;12.566;2023-08-24T02:06:00;17.30;99.90
37410;DHT22;23275;48.914;12.566;2023-08-24T02:08:25;17.40;99.90
37410;DHT22;23275;48.914;12.566;2023-08-24T02:10:51;17.30;99.90
37410;DHT22;23275;48.914;12.566;2023-08-24T02:13:16;17.30;99.90
37410;DHT22;23275;48.914;12.566;2023-08-24T02:15:42;17.40;99.90
37410;DHT22;23275;48.914;12.566;2023-08-24T02:18:07;17.40;99.90
37410;DHT22;23275;48.914;12.566;2023-08-24T02:20:37;17.40;99.90
37410;DHT22;23275;48.914;12.566;2023-08-24T02:23:04;17.40;99.90
37410;DHT22;23275;48.914;12.566;2023-08-24T02:25:29;17.40;99.90
37410;DHT22;23275;48.914;12.566;2023-08-24T02:27:55;17.40;99.90
37410;DHT22;23275;48.914;12.566;2023-08-24T02:30:20;17.40;99.90
37410;DHT22;23275;48.914;12.566;2023-08-24T02:32:46;17.40;99.90
37410;DHT22;23275;48.914;12.566;2023-08-24T02:35:12;17.40;99.90
37410;DHT22;23275;48.914;12.566;2023-08-24T02:37:37;17.40;99.90
37410;DHT22;23275;48.914;12.566;2023-08-24T02:40:03;17.30;99.90
37410;DHT22;23275;48.914;12.566;2023-08-24T02:42:33;17.30;99.90
37410;DHT22;23275;48.914;12.566;2023-08-24T02:44:59;17.20;99.90
37410;DHT22;23275;48.914;12.566;2023-08-24T02:47:24;17.20;99.90
37410;DHT22;23275;48.914;12.566;2023-08-24T02:49:50;17.20;99.90
37410;DHT22;23275;48.914;12.566;2023-08-24T02:52:15;17.20;99.90
37410;DHT22;23275;48.914;12.566;2023-08-24T02:54:41;17.10;99.90
37410;DHT22;23275;48.914;12.566;2023-08-24T02:57:07;17.00;99.90
37410;DHT22;23275;48.914;12.566;2023-08-24T02:59:32;17.00;99.90
37410;DHT22;23275;48.914;12.566;2023-08-24T03:01:58;17.00;99.90
37410;DHT22;23275;48.914;12.566;2023-08-24T03:04:24;17.00;99.90
37410;DHT22;23275;48.914;12.566;2023-08-24T03:06:49;17.00;99.90
37410;DHT22;23275;48.914;12.566;2023-08-24T03:09:15;16.90;99.90
37410;DHT22;23275;48.914;12.566;2023-08-24T03:11:41;16.90;99.90
37410;DHT22;23275;48.914;12.566;2023-08-24T03:14:06;16.90;99.90
37410;DHT22;23275;48.914;12.566;2023-08-24T03:16:32;16.80;99.90
37410;DHT22;23275;48.914;12.566;2023-08-24T03:18:58;16.70;99.90
37410;DHT22;23275;48.914;12.566;2023-08-24T03:21:24;16.70;99.90
37410;DHT22;23275;48.914;12.566;2023-08-24T03:23:49;16.60;99.90
37410;DHT22;23275;48.914;12.566;2023-08-24T03:26:15;16.60;99.90
37410;DHT22;23275;48.914;12.566;2023-08-24T03:28:42;16.60;99.90
37410;DHT22;23275;48.914;12.566;2023-08-24T03:31:08;16.50;99.90
37410;DHT22;23275;48.914;12.566;2023-08-24T03:33:33;16.50;99.90
37410;DHT22;23275;48.914;12.566;2023-08-24T03:36:00;16.50;99.90
37410;DHT22;23275;48.914;12.566;2023-08-24T03:38:26;16.40;99.90
37410;DHT22;23275;48.914;12.566;2023-08-24T03:40:52;16.50;99.90
37410;DHT22;23275;48.914;12.566;2023-08-24T03:43:24;16.50;99.90
37410;DHT22;23275;48.914;12.566;2023-08-24T03:45:50;16.50;99.90
37410;DHT22;23275;48.914;12.566;2023-08-24T03:48:15;16.50;99.90
37410;DHT22;23275;48.914;12.566;2023-08-24T03:50:41;16.60;99.90
37410;DHT22;23275;48.914;12.566;2023-08-24T03:53:07;16.60;99.90
37410;DHT22;23275;48.914;12.566;2023-08-24T03:55:32;16.60;99.90
37410;DHT22;23275;48.914;12.566;2023-08-24T03:57:58;16.60;99.90
37410;DHT22;23275;48.914;12.566;2023-08-24T04:00:24;16.50;99.90
37410;DHT22;23275;48.914;12.566;2023-08-24T04:02:49;16.60;99.90
37410;DHT22;23275;48.914;12.566;2023-08-24T04:05:15;16.50;99.90
37410;DHT22;23275;48.914;12.566;2023-08-24T04:07:41;16.50;99.90
37410;DHT22;23275;48.914;12.566;2023-08-24T04:10:07;16.60;99.90
37410;DHT22;23275;48.914;12.566;2023-08-24T04:12:33;16.60;99.90
37410;DHT22;23275;48.914;12.566;2023-08-24T04:14:59;16.70;99.90
37410;DHT22;23275;48.914;12.566;2023-08-24T04:17:25;16.70;99.90
37410;DHT22;23275;48.914;12.566;2023-08-24T04:19:51;16.70;99.90
37410;DHT22;23275;48.914;12.566;2023-08-24T04:22:16;16.80;99.90
37410;DHT22;23275;48.914;12.566;2023-08-24T04:24:42;16.80;99.90
37410;DHT22;23275;48.914;12.566;2023-08-24T04:27:08;16.80;99.90
37410;DHT22;23275;48.914;12.566;2023-08-24T04:29:33;16.80;99.90
37410;DHT22;23275;48.914;12.566;2023-08-24T04:31:59;16.80;99.90
37410;DHT22;23275;48.914;12.566;2023-08-24T04:34:24;16.90;99.90
37410;DHT22;23275;48.914;12.566;2023-08-24T04:36:50;16.90;99.90
37410;DHT22;23275;48.914;12.566;2023-08-24T04:39:15;16.80;99.90
37410;DHT22;23275;48.914;12.566;2023-08-24T04:41:42;16.80;99.90
37410;DHT22;23275;48.914;12.566;2023-08-24T04:44:07;16.80;99.90
37410;DHT22;23275;48.914;12.566;2023-08-24T04:46:33;16.90;99.90
37410;DHT22;23275;48.914;12.566;2023-08-24T04:48:59;16.90;99.90
37410;DHT22;23275;48.914;12.566;2023-08-24T04:51:24;16.90;99.90
37410;DHT22;23275;48.914;12.566;2023-08-24T04:53:53;16.90;99.90
37410;DHT22;23275;48.914;12.566;2023-08-24T04:56:19;16.90;99.90
37410;DHT22;23275;48.914;12.566;2023-08-24T04:58:54;17.00;99.90
37410;DHT22;23275;48.914;12.566;2023-08-24T05:01:22;17.00;99.90
37410;DHT22;23275;48.914;12.566;2023-08-24T05:03:48;17.10;99.90
37410;DHT22;23275;48.914;12.566;2023-08-24T05:06:14;17.20;99.90
37410;DHT22;23275;48.914;12.566;2023-08-24T05:08:39;17.20;99.90
37410;DHT22;23275;48.914;12.566;2023-08-24T05:11:16;17.30;99.90
37410;DHT22;23275;48.914;12.566;2023-08-24T05:13:45;17.40;99.90
37410;DHT22;23275;48.914;12.566;2023-08-24T05:16:14;17.40;99.90
37410;DHT22;23275;48.914;12.566;2023-08-24T05:18:40;17.50;99.90
37410;DHT22;23275;48.914;12.566;2023-08-24T05:21:06;17.60;99.90
37410;DHT22;23275;48.914;12.566;2023-08-24T05:23:32;17.70;99.90
37410;DHT22;23275;48.914;12.566;2023-08-24T05:25:59;17.80;99.90
37410;DHT22;23275;48.914;12.566;2023-08-24T05:28:25;18.00;99.90
37410;DHT22;23275;48.914;12.566;2023-08-24T05:30:52;18.10;99.90
37410;DHT22;23275;48.914;12.566;2023-08-24T05:33:17;18.20;99.90
37410;DHT22;23275;48.914;12.566;2023-08-24T05:35:43;18.30;99.90
37410;DHT22;23275;48.914;12.566;2023-08-24T05:38:09;18.50;99.90
37410;DHT22;23275;48.914;12.566;2023-08-24T05:40:34;18.50;99.90
37410;DHT22;23275;48.914;12.566;2023-08-24T05:43:00;18.60;99.90
37410;DHT22;23275;48.914;12.566;2023-08-24T05:45:26;18.70;99.90
37410;DHT22;23275;48.914;12.566;2023-08-24T05:47:51;18.80;99.90
37410;DHT22;23275;48.914;12.566;2023-08-24T05:50:17;19.00;99.90
37410;DHT22;23275;48.914;12.566;2023-08-24T05:52:42;19.10;99.90
37410;DHT22;23275;48.914;12.566;2023-08-24T05:55:08;19.10;99.90
37410;DHT22;23275;48.914;12.566;2023-08-24T05:57:33;19.10;99.90
37410;DHT22;23275;48.914;12.566;2023-08-24T05:59:59;19.20;99.90
37410;DHT22;23275;48.914;12.566;2023-08-24T06:02:25;19.20;99.90
37410;DHT22;23275;48.914;12.566;2023-08-24T06:04:51;19.20;99.90
37410;DHT22;23275;48.914;12.566;2023-08-24T06:07:20;19.30;99.90
37410;DHT22;23275;48.914;12.566;2023-08-24T06:09:47;19.30;99.90
37410;DHT22;23275;48.914;12.566;2023-08-24T06:12:12;19.40;99.90
37410;DHT22;23275;48.914;12.566;2023-08-24T06:14:38;19.50;99.90
37410;DHT22;23275;48.914;12.566;2023-08-24T06:17:03;19.60;99.90
37410;DHT22;23275;48.914;12.566;2023-08-24T06:19:29;19.60;99.90
37410;DHT22;23275;48.914;12.566;2023-08-24T06:21:54;19.80;99.90
37410;DHT22;23275;48.914;12.566;2023-08-24T06:24:20;19.90;99.90
37410;DHT22;23275;48.914;12.566;2023-08-24T06:26:46;20.00;99.90
37410;DHT22;23275;48.914;12.566;2023-08-24T06:29:11;20.20;99.90
37410;DHT22;23275;48.914;12.566;2023-08-24T06:31:37;20.40;99.90
37410;DHT22;23275;48.914;12.566;2023-08-24T06:34:02;20.60;99.90
37410;DHT22;23275;48.914;12.566;2023-08-24T06:36:28;20.60;99.90
37410;DHT22;23275;48.914;12.566;2023-08-24T06:38:55;20.70;99.90
37410;DHT22;23275;48.914;12.566;2023-08-24T06:41:20;20.90;99.90
37410;DHT22;23275;48.914;12.566;2023-08-24T06:43:46;21.10;99.90
37410;DHT22;23275;48.914;12.566;2023-08-24T06:46:11;21.20;99.90
37410;DHT22;23275;48.914;12.566;2023-08-24T06:48:38;21.50;99.90
37410;DHT22;23275;48.914;12.566;2023-08-24T06:51:05;21.60;99.90
37410;DHT22;23275;48.914;12.566;2023-08-24T06:53:31;21.80;99.90
37410;DHT22;23275;48.914;12.566;2023-08-24T06:55:57;22.00;99.90
37410;DHT22;23275;48.914;12.566;2023-08-24T06:58:23;22.20;99.90
37410;DHT22;23275;48.914;12.566;2023-08-24T07:00:49;22.40;99.90
37410;DHT22;23275;48.914;12.566;2023-08-24T07:03:18;22.60;99.90
37410;DHT22;23275;48.914;12.566;2023-08-24T07:05:45;22.90;99.90
37410;DHT22;23275;48.914;12.566;2023-08-24T07:08:11;23.10;99.90
37410;DHT22;23275;48.914;12.566;2023-08-24T07:10:36;23.20;99.90
37410;DHT22;23275;48.914;12.566;2023-08-24T07:13:02;23.40;99.90
37410;DHT22;23275;48.914;12.566;2023-08-24T07:15:28;23.60;99.90
37410;DHT22;23275;48.914;12.566;2023-08-24T07:17:54;23.80;99.90
37410;DHT22;23275;48.914;12.566;2023-08-24T07:20:19;23.90;99.90
37410;DHT22;23275;48.914;12.566;2023-08-24T07:22:45;24.00;99.90
37410;DHT22;23275;48.914;12.566;2023-08-24T07:25:11;24.20;99.90
37410;DHT22;23275;48.914;12.566;2023-08-24T07:27:37;24.20;99.90
37410;DHT22;23275;48.914;12.566;2023-08-24T07:30:03;24.10;99.90
37410;DHT22;23275;48.914;12.566;2023-08-24T07:32:33;24.20;99.90
37410;DHT22;23275;48.914;12.566;2023-08-24T07:34:58;24.20;99.90
37410;DHT22;23275;48.914;12.566;2023-08-24T07:37:25;24.10;99.90
37410;DHT22;23275;48.914;12.566;2023-08-24T07:39:51;24.30;99.90
37410;DHT22;23275;48.914;12.566;2023-08-24T07:42:19;24.60;99.90
37410;DHT22;23275;48.914;12.566;2023-08-24T07:44:45;24.90;99.90
37410;DHT22;23275;48.914;12.566;2023-08-24T07:47:11;25.20;99.90
37410;DHT22;23275;48.914;12.566;2023-08-24T07:49:36;25.40;99.90
37410;DHT22;23275;48.914;12.566;2023-08-24T07:52:02;25.50;99.90
37410;DHT22;23275;48.914;12.566;2023-08-24T07:54:28;25.50;99.90
37410;DHT22;23275;48.914;12.566;2023-08-24T07:56:53;25.60;99.90
37410;DHT22;23275;48.914;12.566;2023-08-24T07:59:19;25.70;99.90
37410;DHT22;23275;48.914;12.566;2023-08-24T08:01:44;25.90;99.90
37410;DHT22;23275;48.914;12.566;2023-08-24T08:04:10;25.90;99.90
37410;DHT22;23275;48.914;12.566;2023-08-24T08:06:35;26.20;99.90
37410;DHT22;23275;48.914;12.566;2023-08-24T08:09:01;26.50;99.90
37410;DHT22;23275;48.914;12.566;2023-08-24T08:11:27;26.70;99.90
37410;DHT22;23275;48.914;12.566;2023-08-24T08:13:52;26.90;99.90
37410;DHT22;23275;48.914;12.566;2023-08-24T08:16:18;27.00;99.90
37410;DHT22;23275;48.914;12.566;2023-08-24T08:18:43;27.20;99.90
37410;DHT22;23275;48.914;12.566;2023-08-24T08:21:16;27.60;99.90
37410;DHT22;23275;48.914;12.566;2023-08-24T08:23:45;28.00;99.90
37410;DHT22;23275;48.914;12.566;2023-08-24T08:26:12;28.00;99.90
37410;DHT22;23275;48.914;12.566;2023-08-24T08:28:39;28.30;99.90
37410;DHT22;23275;48.914;12.566;2023-08-24T08:31:04;28.50;99.90
37410;DHT22;23275;48.914;12.566;2023-08-24T08:33:30;28.90;99.90
37410;DHT22;23275;48.914;12.566;2023-08-24T08:35:56;29.60;99.90
37410;DHT22;23275;48.914;12.566;2023-08-24T08:38:22;29.60;99.90
37410;DHT22;23275;48.914;12.566;2023-08-24T08:40:55;29.10;99.90
37410;DHT22;23275;48.914;12.566;2023-08-24T08:43:22;28.50;99.90
37410;DHT22;23275;48.914;12.566;2023-08-24T08:45:49;28.10;99.90
37410;DHT22;23275;48.914;12.566;2023-08-24T08:48:16;27.80;99.90
37410;DHT22;23275;48.914;12.566;2023-08-24T08:50:41;27.60;99.90
37410;DHT22;23275;48.914;12.566;2023-08-24T08:53:07;27.70;99.90
37410;DHT22;23275;48.914;12.566;2023-08-24T08:55:32;27.80;99.90
37410;DHT22;23275;48.914;12.566;2023-08-24T08:58:00;27.80;99.90
37410;DHT22;23275;48.914;12.566;2023-08-24T09:00:27;28.20;99.90
37410;DHT22;23275;48.914;12.566;2023-08-24T09:02:54;29.40;99.90
37410;DHT22;23275;48.914;12.566;2023-08-24T09:05:21;32.80;99.90
37410;DHT22;23275;48.914;12.566;2023-08-24T09:07:47;35.30;99.60
37410;DHT22;23275;48.914;12.566;2023-08-24T09:10:13;37.50;93.40
37410;DHT22;23275;48.914;12.566;2023-08-24T09:12:39;40.60;82.40
37410;DHT22;23275;48.914;12.566;2023-08-24T09:15:05;43.70;63.90
37410;DHT22;23275;48.914;12.566;2023-08-24T09:17:35;46.00;54.30
37410;DHT22;23275;48.914;12.566;2023-08-24T09:20:06;47.70;49.70
37410;DHT22;23275;48.914;12.566;2023-08-24T09:22:36;48.90;45.00
37410;DHT22;23275;48.914;12.566;2023-08-24T09:25:02;49.20;42.50
37410;DHT22;23275;48.914;12.566;2023-08-24T09:27:29;48.80;43.50
37410;DHT22;23275;48.914;12.566;2023-08-24T09:29:55;49.00;41.60
37410;DHT22;23275;48.914;12.566;2023-08-24T09:32:24;49.50;41.90
37410;DHT22;23275;48.914;12.566;2023-08-24T09:34:50;49.80;40.60
37410;DHT22;23275;48.914;12.566;2023-08-24T09:37:16;49.60;39.80
37410;DHT22;23275;48.914;12.566;2023-08-24T09:39:42;49.30;39.60
37410;DHT22;23275;48.914;12.566;2023-08-24T09:42:08;49.40;40.40
37410;DHT22;23275;48.914;12.566;2023-08-24T09:44:34;49.00;40.90
37410;DHT22;23275;48.914;12.566;2023-08-24T09:47:00;48.90;40.40
37410;DHT22;23275;48.914;12.566;2023-08-24T09:49:28;48.60;39.60
37410;DHT22;23275;48.914;12.566;2023-08-24T09:51:57;48.50;39.90
37410;DHT22;23275;48.914;12.566;2023-08-24T09:54:26;48.90;40.10
37410;DHT22;23275;48.914;12.566;2023-08-24T09:56:54;49.40;40.00
37410;DHT22;23275;48.914;12.566;2023-08-24T09:59:22;49.70;39.50
37410;DHT22;23275;48.914;12.566;2023-08-24T10:01:50;49.80;38.80
37410;DHT22;23275;48.914;12.566;2023-08-24T10:04:29;49.80;37.10
37410;DHT22;23275;48.914;12.566;2023-08-24T10:07:21;49.50;38.40
37410;DHT22;23275;48.914;12.566;2023-08-24T10:09:58;49.30;37.80
37410;DHT22;23275;48.914;12.566;2023-08-24T10:12:27;49.20;40.00
37410;DHT22;23275;48.914;12.566;2023-08-24T10:14:59;49.40;39.10
37410;DHT22;23275;48.914;12.566;2023-08-24T10:17:25;49.20;37.70
37410;DHT22;23275;48.914;12.566;2023-08-24T10:19:52;47.80;38.70
37410;DHT22;23275;48.914;12.566;2023-08-24T10:22:19;47.20;39.50
37410;DHT22;23275;48.914;12.566;2023-08-24T10:24:47;47.10;40.60
37410;DHT22;23275;48.914;12.566;2023-08-24T10:27:14;47.00;41.60
37410;DHT22;23275;48.914;12.566;2023-08-24T10:29:40;47.10;40.30
37410;DHT22;23275;48.914;12.566;2023-08-24T10:32:06;46.80;38.00
37410;DHT22;23275;48.914;12.566;2023-08-24T10:34:32;46.40;38.40
37410;DHT22;23275;48.914;12.566;2023-08-24T10:37:09;46.10;41.10
37410;DHT22;23275;48.914;12.566;2023-08-24T10:39:36;44.80;40.00
37410;DHT22;23275;48.914;12.566;2023-08-24T10:42:05;42.20;40.70
37410;DHT22;23275;48.914;12.566;2023-08-24T10:44:36;40.10;44.20
37410;DHT22;23275;48.914;12.566;2023-08-24T10:47:18;40.00;45.90
37410;DHT22;23275;48.914;12.566;2023-08-24T10:50:04;40.60;46.10
37410;DHT22;23275;48.914;12.566;2023-08-24T10:52:32;41.90;44.80
37410;DHT22;23275;48.914;12.566;2023-08-24T10:55:03;42.30;42.50
37410;DHT22;23275;48.914;12.566;2023-08-24T10:57:39;42.20;43.10
37410;DHT22;23275;48.914;12.566;2023-08-24T11:00:11;42.00;41.80
37410;DHT22;23275;48.914;12.566;2023-08-24T11:05:22;41.60;41.80
37410;DHT22;23275;48.914;12.566;2023-08-24T11:07:58;40.90;44.90
37410;DHT22;23275;48.914;12.566;2023-08-24T11:13:14;39.80;48.20
37410;DHT22;23275;48.914;12.566;2023-08-24T11:15:42;39.30;50.30
37410;DHT22;23275;48.914;12.566;2023-08-24T11:18:22;38.50;48.00
37410;DHT22;23275;48.914;12.566;2023-08-24T11:20:50;37.30;49.30
37410;DHT22;23275;48.914;12.566;2023-08-24T11:23:17;36.00;53.00
37410;DHT22;23275;48.914;12.566;2023-08-24T11:25:44;34.80;53.00
37410;DHT22;23275;48.914;12.566;2023-08-24T11:28:09;34.00;58.50
37410;DHT22;23275;48.914;12.566;2023-08-24T11:30:35;33.50;57.60
37410;DHT22;23275;48.914;12.566;2023-08-24T11:33:01;33.20;59.20
37410;DHT22;23275;48.914;12.566;2023-08-24T11:35:27;33.10;58.40
37410;DHT22;23275;48.914;12.566;2023-08-24T11:37:56;32.60;57.60
37410;DHT22;23275;48.914;12.566;2023-08-24T11:40:22;32.30;58.10
37410;DHT22;23275;48.914;12.566;2023-08-24T11:42:55;32.00;61.70
37410;DHT22;23275;48.914;12.566;2023-08-24T11:45:22;31.90;61.60
37410;DHT22;23275;48.914;12.566;2023-08-24T11:47:48;32.00;60.80
37410;DHT22;23275;48.914;12.566;2023-08-24T11:50:14;32.00;65.20
37410;DHT22;23275;48.914;12.566;2023-08-24T11:52:43;32.00;60.10
37410;DHT22;23275;48.914;12.566;2023-08-24T11:55:10;32.00;63.80
37410;DHT22;23275;48.914;12.566;2023-08-24T11:57:36;32.00;67.90
37410;DHT22;23275;48.914;12.566;2023-08-24T12:00:03;32.10;64.80
37410;DHT22;23275;48.914;12.566;2023-08-24T12:02:30;32.00;65.90
37410;DHT22;23275;48.914;12.566;2023-08-24T12:04:55;31.90;64.00
37410;DHT22;23275;48.914;12.566;2023-08-24T12:07:21;31.80;64.20
37410;DHT22;23275;48.914;12.566;2023-08-24T12:09:47;31.80;62.90
37410;DHT22;23275;48.914;12.566;2023-08-24T12:12:18;31.70;61.00
37410;DHT22;23275;48.914;12.566;2023-08-24T12:14:49;31.60;63.70
37410;DHT22;23275;48.914;12.566;2023-08-24T12:17:16;31.70;65.00
37410;DHT22;23275;48.914;12.566;2023-08-24T12:19:42;31.60;63.20
37410;DHT22;23275;48.914;12.566;2023-08-24T12:22:16;31.50;64.30
37410;DHT22;23275;48.914;12.566;2023-08-24T12:24:48;31.30;64.00
37410;DHT22;23275;48.914;12.566;2023-08-24T12:27:25;31.30;67.40
37410;DHT22;23275;48.914;12.566;2023-08-24T12:29:51;31.30;64.10
37410;DHT22;23275;48.914;12.566;2023-08-24T12:32:17;31.00;64.40
37410;DHT22;23275;48.914;12.566;2023-08-24T12:34:48;30.80;66.40
37410;DHT22;23275;48.914;12.566;2023-08-24T12:37:14;30.80;67.00
37410;DHT22;23275;48.914;12.566;2023-08-24T12:39:40;30.90;69.10
37410;DHT22;23275;48.914;12.566;2023-08-24T12:42:06;30.90;67.20
37410;DHT22;23275;48.914;12.566;2023-08-24T12:44:32;30.90;69.10
37410;DHT22;23275;48.914;12.566;2023-08-24T12:47:02;30.90;67.50
37410;DHT22;23275;48.914;12.566;2023-08-24T12:49:28;30.80;69.90
37410;DHT22;23275;48.914;12.566;2023-08-24T12:51:54;30.90;69.40
37410;DHT22;23275;48.914;12.566;2023-08-24T12:54:19;30.80;68.00
37410;DHT22;23275;48.914;12.566;2023-08-24T12:56:45;30.60;67.30
37410;DHT22;23275;48.914;12.566;2023-08-24T12:59:11;30.50;65.90
37410;DHT22;23275;48.914;12.566;2023-08-24T13:01:37;30.30;65.00
37410;DHT22;23275;48.914;12.566;2023-08-24T13:04:04;30.40;71.30
37410;DHT22;23275;48.914;12.566;2023-08-24T13:06:30;30.50;69.00
37410;DHT22;23275;48.914;12.566;2023-08-24T13:08:56;30.60;68.80
37410;DHT22;23275;48.914;12.566;2023-08-24T13:11:22;30.70;70.50
37410;DHT22;23275;48.914;12.566;2023-08-24T13:13:48;30.70;73.80
37410;DHT22;23275;48.914;12.566;2023-08-24T13:16:14;30.70;72.00
37410;DHT22;23275;48.914;12.566;2023-08-24T13:18:40;30.70;67.50
37410;DHT22;23275;48.914;12.566;2023-08-24T13:21:06;30.70;70.00
37410;DHT22;23275;48.914;12.566;2023-08-24T13:23:31;30.60;74.90
37410;DHT22;23275;48.914;12.566;2023-08-24T13:25:58;30.60;70.30
37410;DHT22;23275;48.914;12.566;2023-08-24T13:28:23;30.70;70.50
37410;DHT22;23275;48.914;12.566;2023-08-24T13:30:49;30.60;71.00
37410;DHT22;23275;48.914;12.566;2023-08-24T13:33:16;30.50;74.90
37410;DHT22;23275;48.914;12.566;2023-08-24T13:35:43;30.30;76.60
37410;DHT22;23275;48.914;12.566;2023-08-24T13:38:08;30.30;77.00
37410;DHT22;23275;48.914;12.566;2023-08-24T13:40:34;30.30;73.10
37410;DHT22;23275;48.914;12.566;2023-08-24T13:42:59;30.40;72.70
37410;DHT22;23275;48.914;12.566;2023-08-24T13:45:25;30.50;68.80
37410;DHT22;23275;48.914;12.566;2023-08-24T13:47:50;30.50;70.10
37410;DHT22;23275;48.914;12.566;2023-08-24T13:50:16;30.40;69.90
37410;DHT22;23275;48.914;12.566;2023-08-24T13:52:41;30.40;69.50
37410;DHT22;23275;48.914;12.566;2023-08-24T13:55:07;30.40;77.30
37410;DHT22;23275;48.914;12.566;2023-08-24T13:57:33;30.30;77.20
37410;DHT22;23275;48.914;12.566;2023-08-24T13:59:58;30.30;76.80
37410;DHT22;23275;48.914;12.566;2023-08-24T14:02:25;30.30;77.80
37410;DHT22;23275;48.914;12.566;2023-08-24T14:04:50;30.20;76.30
37410;DHT22;23275;48.914;12.566;2023-08-24T14:07:16;30.10;75.60
37410;DHT22;23275;48.914;12.566;2023-08-24T14:09:42;30.10;77.00
37410;DHT22;23275;48.914;12.566;2023-08-24T14:12:07;30.10;79.60
37410;DHT22;23275;48.914;12.566;2023-08-24T14:14:33;30.10;75.70
37410;DHT22;23275;48.914;12.566;2023-08-24T14:16:58;30.10;79.90
37410;DHT22;23275;48.914;12.566;2023-08-24T14:19:24;30.10;80.40
37410;DHT22;23275;48.914;12.566;2023-08-24T14:21:51;30.10;77.50
37410;DHT22;23275;48.914;12.566;2023-08-24T14:24:16;29.90;77.90
37410;DHT22;23275;48.914;12.566;2023-08-24T14:26:42;29.80;81.30
37410;DHT22;23275;48.914;12.566;2023-08-24T14:29:11;29.80;84.30
37410;DHT22;23275;48.914;12.566;2023-08-24T14:31:37;29.80;81.20
37410;DHT22;23275;48.914;12.566;2023-08-24T14:34:02;29.80;85.70
37410;DHT22;23275;48.914;12.566;2023-08-24T14:36:29;29.80;84.20
37410;DHT22;23275;48.914;12.566;2023-08-24T14:38:55;29.80;83.10
37410;DHT22;23275;48.914;12.566;2023-08-24T14:41:21;29.70;80.30
37410;DHT22;23275;48.914;12.566;2023-08-24T14:43:46;29.70;85.30
37410;DHT22;23275;48.914;12.566;2023-08-24T14:46:13;29.70;82.10
37410;DHT22;23275;48.914;12.566;2023-08-24T14:48:39;29.70;84.50
37410;DHT22;23275;48.914;12.566;2023-08-24T14:51:05;29.60;82.60
37410;DHT22;23275;48.914;12.566;2023-08-24T14:53:31;29.60;80.60
37410;DHT22;23275;48.914;12.566;2023-08-24T14:55:58;29.70;81.40
37410;DHT22;23275;48.914;12.566;2023-08-24T14:58:25;29.70;81.90
37410;DHT22;23275;48.914;12.566;2023-08-24T15:00:51;29.60;85.70
37410;DHT22;23275;48.914;12.566;2023-08-24T15:03:18;29.60;85.70
37410;DHT22;23275;48.914;12.566;2023-08-24T15:06:03;29.50;87.70
37410;DHT22;23275;48.914;12.566;2023-08-24T15:08:30;29.40;88.00
37410;DHT22;23275;48.914;12.566;2023-08-24T15:10:57;29.30;88.40
37410;DHT22;23275;48.914;12.566;2023-08-24T15:13:28;29.30;85.80
37410;DHT22;23275;48.914;12.566;2023-08-24T15:15:55;29.20;89.30
37410;DHT22;23275;48.914;12.566;2023-08-24T15:18:21;29.20;86.10
37410;DHT22;23275;48.914;12.566;2023-08-24T15:20:47;29.20;83.20
37410;DHT22;23275;48.914;12.566;2023-08-24T15:25:47;29.00;90.20